Terminal Aerodrome Forecast
Issued by NWS

Home | Current Version | Previous Version | Text Only | Print | Product List | Glossary On
Versions: 1 2 3 4 5 6 7 8 9 10 11 12 13 14 15 16
359
FTPA31 PHFO 061834 AAA
TAFHNY
TAF AMD
PHNY 061834Z 0619/0718 VRB03KT P6SM VCSH FEW017 BKN045
     FM070400 33010KT P6SM VCSH BKN012 BKN040
     FM071000 02018KT 5SM -RA BKN013 OVC035
     FM071200 02022G32KT P6SM VCSH SCT017 BKN040
      AMD NOT SKED=

USA.gov is the U.S. government's official web portal to all federal, state and local government web resources and services.